createdAt,value
2022-08-09T00:00:00.264Z,154198.47
2022-08-09T00:02:29.019Z,154188.13
2022-08-09T00:05:03.337Z,154176.50
2022-08-09T00:07:45.372Z,154202.38
2022-08-09T00:10:14.392Z,154188.13
2022-08-09T00:12:45.778Z,154189.44
2022-08-09T00:15:13.841Z,154219.22
2022-08-09T00:18:05.381Z,154214.00
2022-08-09T00:20:31.530Z,154208.88
2022-08-09T00:23:07.796Z,154185.53
2022-08-09T00:25:37.499Z,154184.25
2022-08-09T00:28:06.480Z,154175.19
2022-08-09T00:30:33.986Z,154172.59
2022-08-09T00:33:01.447Z,154162.28
2022-08-09T00:35:43.004Z,154154.53
2022-08-09T00:38:12.586Z,154133.75
2022-08-09T00:40:40.522Z,154133.75
2022-08-09T00:44:11.923Z,154116.91
2022-08-09T00:46:09.420Z,154114.38
2022-08-09T00:48:38.029Z,154141.53
2022-08-09T00:51:11.911Z,154149.34
2022-08-09T00:53:40.635Z,154151.94
2022-08-09T00:56:10.038Z,154126.00
2022-08-09T00:58:37.831Z,154096.25
2022-08-09T01:01:15.808Z,154085.91
2022-08-09T01:03:54.923Z,154066.50
2022-08-09T01:06:35.121Z,154023.81
2022-08-09T01:09:26.193Z,153994.06
2022-08-09T01:12:13.055Z,153963.06
2022-08-09T01:14:45.940Z,153965.66
2022-08-09T01:17:24.522Z,153955.25
2022-08-09T01:20:02.696Z,153934.59
2022-08-09T01:23:02.087Z,153877.72
2022-08-09T01:25:48.978Z,153893.22
2022-08-09T01:28:22.304Z,153849.22
2022-08-09T01:30:53.303Z,153881.59
2022-08-09T01:33:24.867Z,153908.75
2022-08-09T01:36:00.507Z,153893.22
2022-08-09T01:38:30.589Z,153881.59
2022-08-09T01:41:05.548Z,153900.97
2022-08-09T01:43:50.827Z,153900.97
2022-08-09T01:46:25.152Z,153903.56
2022-08-09T01:48:57.294Z,153911.34
2022-08-09T01:51:32.349Z,153863.50
2022-08-09T01:54:04.218Z,153899.66
2022-08-09T01:56:32.688Z,153880.31
2022-08-09T01:59:07.275Z,153857.00
2022-08-09T02:01:57.844Z,153855.72
2022-08-09T02:04:27.244Z,153857.00
2022-08-09T02:07:18.323Z,153854.41
2022-08-09T02:10:01.417Z,153854.41
2022-08-09T02:12:34.832Z,153836.28
2022-08-09T02:15:07.900Z,153810.44
2022-08-09T02:18:09.862Z,153807.84
2022-08-09T02:20:32.595Z,153805.25
2022-08-09T02:23:05.976Z,153802.72
2022-08-09T02:25:52.486Z,153854.41
2022-08-09T02:28:24.383Z,153792.34
2022-08-09T02:30:59.690Z,153811.75
2022-08-09T02:33:37.818Z,153825.97
2022-08-09T02:36:26.373Z,153807.84
2022-08-09T02:38:56.266Z,153792.34
2022-08-09T02:41:27.049Z,153784.59
2022-08-09T02:43:59.062Z,153772.97
2022-08-09T02:46:30.637Z,153731.63
2022-08-09T02:49:02.560Z,153710.94
2022-08-09T02:51:40.127Z,153705.78
2022-08-09T02:54:10.694Z,153678.66
2022-08-09T02:56:43.756Z,153650.25
2022-08-09T02:59:26.557Z,153651.53
2022-08-09T03:02:11.923Z,153663.16
2022-08-09T03:04:40.697Z,153673.47
2022-08-09T03:07:14.274Z,153668.34
2022-08-09T03:09:43.727Z,153615.34
2022-08-09T03:12:23.989Z,153632.13
2022-08-09T03:14:52.907Z,153639.91
2022-08-09T03:17:27.085Z,153650.25
2022-08-09T03:20:02.974Z,153615.34
2022-08-09T03:22:42.069Z,153603.72
2022-08-09T03:25:25.946Z,153617.94
2022-08-09T03:28:03.200Z,153636.03
2022-08-09T03:30:33.912Z,153657.97
2022-08-09T03:33:17.412Z,153716.13
2022-08-09T03:36:14.021Z,153659.25
2022-08-09T03:38:35.944Z,153641.22
2022-08-09T03:41:05.075Z,153657.97
2022-08-09T03:43:33.509Z,153655.38
2022-08-09T03:46:20.756Z,153656.66
2022-08-09T03:48:57.863Z,153690.28
2022-08-09T03:51:55.622Z,153650.25
2022-08-09T03:54:15.593Z,153669.59
2022-08-09T03:56:44.789Z,153668.34
2022-08-09T03:59:20.925Z,153642.47
2022-08-09T04:01:59.323Z,153637.31
2022-08-09T04:04:36.085Z,153642.47
2022-08-09T04:07:06.602Z,153660.56
2022-08-09T04:09:48.392Z,153682.50
2022-08-09T04:12:44.503Z,153634.72
2022-08-09T04:15:29.309Z,153651.53
2022-08-09T04:18:00.501Z,153679.97
2022-08-09T04:20:29.794Z,153688.97
2022-08-09T04:23:00.379Z,153660.56
2022-08-09T04:25:29.807Z,153686.41
2022-08-09T04:28:02.405Z,153714.81
2022-08-09T04:30:31.629Z,153727.75
2022-08-09T04:33:01.739Z,153754.88
2022-08-09T04:35:32.821Z,153785.91
2022-08-09T04:38:03.762Z,153748.44
2022-08-09T04:40:48.153Z,153754.88
2022-08-09T04:43:21.746Z,153775.56
2022-08-09T04:45:53.913Z,153784.59
2022-08-09T04:48:21.962Z,153833.72
2022-08-09T04:50:52.727Z,153847.94
2022-08-09T04:53:20.178Z,153873.81
2022-08-09T04:55:58.433Z,153934.59
2022-08-09T04:58:27.502Z,153944.94
2022-08-09T05:00:55.220Z,153986.31
2022-08-09T05:03:40.946Z,154058.75
2022-08-09T05:06:25.857Z,154083.31
2022-08-09T05:09:00.689Z,154136.34
2022-08-09T05:11:32.453Z,154180.41
2022-08-09T05:14:05.820Z,154239.88
2022-08-09T05:16:34.178Z,154245.09
2022-08-09T05:19:25.810Z,154321.41
2022-08-09T05:21:56.452Z,154317.53
2022-08-09T05:24:24.422Z,154362.84
2022-08-09T05:26:51.981Z,154340.84
2022-08-09T05:29:22.233Z,154375.78
2022-08-09T05:31:57.224Z,154457.41
2022-08-09T05:34:31.100Z,154478.16
2022-08-09T05:37:04.988Z,154555.84
2022-08-09T05:39:36.393Z,154584.31
2022-08-09T05:42:17.629Z,154640.09
2022-08-09T05:44:50.766Z,154649.13
2022-08-09T05:47:19.117Z,154700.94
2022-08-09T05:50:24.511Z,154726.88
2022-08-09T05:52:35.645Z,154776.13
2022-08-09T05:55:08.811Z,154791.66
2022-08-09T05:57:51.115Z,154804.59
2022-08-09T06:00:25.091Z,154816.31
2022-08-09T06:02:54.367Z,154853.88
2022-08-09T06:05:30.915Z,154791.66
2022-08-09T06:08:13.477Z,154790.41
2022-08-09T06:10:46.551Z,154864.25
2022-08-09T06:13:20.410Z,154904.47
2022-08-09T06:15:51.562Z,154977.09
2022-08-09T06:18:24.054Z,155040.63
2022-08-09T06:20:54.538Z,155058.81
2022-08-09T06:23:58.144Z,155080.84
2022-08-09T06:26:15.318Z,155110.72
2022-08-09T06:28:49.463Z,155131.47
2022-08-09T06:31:16.887Z,155198.91
2022-08-09T06:33:58.016Z,155206.72
2022-08-09T06:36:27.273Z,155271.59
2022-08-09T06:38:58.876Z,155333.91
2022-08-09T06:41:55.824Z,155371.59
2022-08-09T06:44:18.287Z,155405.31
2022-08-09T06:46:48.133Z,155441.72
2022-08-09T06:49:28.976Z,155365.09
2022-08-09T06:52:05.455Z,155270.28
2022-08-09T06:54:36.766Z,155249.56
2022-08-09T06:57:06.630Z,155231.38
2022-08-09T07:00:57.227Z,155258.63
2022-08-09T07:02:29.499Z,155323.56
2022-08-09T07:04:58.600Z,155323.56
2022-08-09T07:08:00.910Z,155376.75
2022-08-09T07:10:29.608Z,155526.09
2022-08-09T07:12:59.360Z,155663.78
2022-08-09T07:15:53.922Z,155754.75
2022-08-09T07:18:15.140Z,155798.97
2022-08-09T07:20:43.390Z,156043.38
2022-08-09T07:23:18.689Z,156310.16
2022-08-09T07:25:52.304Z,156293.22
2022-08-09T07:28:28.981Z,156282.84
2022-08-09T07:30:56.580Z,156441.63
2022-08-09T07:33:24.051Z,156488.47
2022-08-09T07:35:54.029Z,156196.91
2022-08-09T07:38:23.481Z,156228.13
2022-08-09T07:41:10.132Z,156329.66
2022-08-09T07:43:49.620Z,156405.16
2022-08-09T07:46:19.444Z,156350.50
2022-08-09T07:48:59.083Z,156314.03
2022-08-09T07:52:03.159Z,156074.59
2022-08-09T07:54:15.770Z,156161.75
2022-08-09T07:56:56.546Z,156168.28
2022-08-09T07:59:34.735Z,156189.06
2022-08-09T08:02:19.448Z,156165.66
2022-08-09T08:04:48.745Z,156131.88
2022-08-09T08:08:44.112Z,156150.06
2022-08-09T08:10:10.482Z,156189.06
2022-08-09T08:12:43.193Z,156280.22
2022-08-09T08:15:13.840Z,156295.84
2022-08-09T08:17:53.423Z,156324.47
2022-08-09T08:20:27.309Z,156329.66
2022-08-09T08:23:01.737Z,156407.72
2022-08-09T08:25:44.516Z,156461.13
2022-08-09T08:28:18.131Z,156330.94
2022-08-09T08:30:52.934Z,156425.94
2022-08-09T08:33:23.938Z,156409.00
2022-08-09T08:36:00.463Z,156517.09
2022-08-09T08:38:31.029Z,156631.75
2022-08-09T08:40:59.140Z,156754.16
2022-08-09T08:43:28.229Z,156837.59
2022-08-09T08:46:03.932Z,156774.97
2022-08-09T08:48:51.527Z,156626.50
2022-08-09T08:51:19.964Z,156610.88
2022-08-09T08:54:03.455Z,156679.91
2022-08-09T08:56:34.538Z,156761.97
2022-08-09T08:59:18.725Z,156707.25
2022-08-09T09:01:53.290Z,156679.91
2022-08-09T09:04:29.662Z,156722.88
2022-08-09T09:07:02.082Z,156842.78
2022-08-09T09:09:50.273Z,156931.41
2022-08-09T09:12:22.055Z,157042.25
2022-08-09T09:14:52.160Z,157053.97
2022-08-09T09:17:21.057Z,157072.22
2022-08-09T09:19:48.604Z,156949.72
2022-08-09T09:22:17.553Z,156909.25
2022-08-09T09:26:00.456Z,157096.97
2022-08-09T09:28:04.985Z,157273.09
2022-08-09T09:30:41.043Z,157395.72
2022-08-09T09:33:15.625Z,157378.75
2022-08-09T09:36:01.771Z,157380.03
2022-08-09T09:38:45.421Z,157364.38
2022-08-09T09:41:27.705Z,157244.34
2022-08-09T09:44:12.573Z,157121.78
2022-08-09T09:46:45.911Z,157095.69
2022-08-09T09:49:32.109Z,157121.78
2022-08-09T09:52:16.305Z,157067.00
2022-08-09T09:55:02.944Z,157138.75
2022-08-09T09:58:02.605Z,157378.75
2022-08-09T10:00:34.414Z,157463.59
2022-08-09T10:03:09.195Z,157367.00
2022-08-09T10:06:04.032Z,157233.94
2022-08-09T10:08:32.434Z,157120.50
2022-08-09T10:12:00.742Z,157095.69
2022-08-09T10:14:07.063Z,157102.22
2022-08-09T10:16:58.003Z,157134.81
2022-08-09T10:19:35.800Z,157127.03
2022-08-09T10:22:03.619Z,157027.91
2022-08-09T10:24:35.862Z,157014.88
2022-08-09T10:27:05.389Z,157074.78
2022-08-09T10:30:29.981Z,157151.78
2022-08-09T10:32:40.159Z,157093.06
2022-08-09T10:35:13.218Z,157009.63
2022-08-09T10:37:42.103Z,157074.78
2022-08-09T10:40:33.451Z,157129.59
2022-08-09T10:43:00.095Z,157166.13
2022-08-09T10:45:31.799Z,157171.31
2022-08-09T10:48:19.357Z,157192.22
2022-08-09T10:51:09.254Z,157278.28
2022-08-09T10:53:54.610Z,157293.94
2022-08-09T10:56:24.304Z,157189.59
2022-08-09T10:58:54.293Z,157127.03
2022-08-09T11:03:15.188Z,157005.72
2022-08-09T11:04:29.846Z,157029.22
2022-08-09T11:07:57.587Z,156952.28
2022-08-09T11:10:30.128Z,156945.78
2022-08-09T11:13:51.294Z,157108.75
2022-08-09T11:16:33.474Z,157236.56
2022-08-09T11:19:03.181Z,157356.59
2022-08-09T11:21:57.246Z,157364.38
2022-08-09T11:25:05.640Z,157352.66
2022-08-09T11:28:08.039Z,157213.03
2022-08-09T11:30:37.616Z,157129.59
2022-08-09T11:33:11.730Z,157116.56
2022-08-09T11:35:49.671Z,157115.25
2022-08-09T11:38:22.349Z,157027.91
2022-08-09T11:40:57.844Z,157010.94
2022-08-09T11:43:41.258Z,157035.69
2022-08-09T11:46:09.455Z,157056.56
2022-08-09T11:48:48.709Z,157056.56
2022-08-09T11:51:38.027Z,157172.63
2022-08-09T11:54:27.686Z,157338.31
2022-08-09T11:57:48.043Z,157239.13
2022-08-09T12:00:27.426Z,157116.56
2022-08-09T12:02:56.660Z,157181.78
2022-08-09T12:05:37.608Z,157283.53
2022-08-09T12:08:12.236Z,157440.13
2022-08-09T12:10:48.526Z,157427.09
2022-08-09T12:14:09.720Z,157536.69
2022-08-09T12:16:37.633Z,157574.56
2022-08-09T12:19:08.541Z,157526.22
2022-08-09T12:21:39.303Z,157697.25
2022-08-09T12:24:22.195Z,157799.13
2022-08-09T12:28:58.262Z,157416.59
2022-08-09T12:29:44.497Z,157424.47
2022-08-09T12:32:27.389Z,157357.91
2022-08-09T12:35:02.648Z,157278.28
2022-08-09T12:37:49.754Z,157270.47
2022-08-09T12:40:19.151Z,157038.31
2022-08-09T12:42:50.454Z,157087.81
2022-08-09T12:45:33.199Z,157098.34
2022-08-09T12:48:10.782Z,157059.19
2022-08-09T12:50:48.628Z,157091.75
2022-08-09T12:53:36.720Z,157128.28
2022-08-09T12:56:15.995Z,157067.00
2022-08-09T12:59:10.528Z,157149.16
2022-08-09T13:01:48.842Z,157226.09
2022-08-09T13:04:36.085Z,157261.38
2022-08-09T13:07:14.340Z,157335.69
2022-08-09T13:09:52.890Z,157411.44
2022-08-09T13:12:23.780Z,157556.28
2022-08-09T13:14:54.031Z,157711.66
2022-08-09T13:18:03.229Z,157805.69
2022-08-09T13:20:17.443Z,157749.53
2022-08-09T13:23:01.543Z,157763.88
2022-08-09T13:25:42.009Z,157709.06
2022-08-09T13:28:11.638Z,157588.94
2022-08-09T13:32:14.482Z,157472.72
2022-08-09T13:33:53.141Z,157447.94
2022-08-09T13:36:39.394Z,157479.25
2022-08-09T13:41:20.918Z,157437.50
2022-08-09T13:42:01.982Z,157325.25
2022-08-09T13:44:30.158Z,157292.63
2022-08-09T13:47:17.834Z,157257.44
2022-08-09T13:49:57.463Z,157192.22
2022-08-09T13:52:26.038Z,157159.59
2022-08-09T13:55:00.139Z,157159.59
2022-08-09T13:57:36.555Z,157164.81
2022-08-09T14:00:13.696Z,157246.97
2022-08-09T14:03:02.991Z,157254.84
2022-08-09T14:05:59.035Z,157210.44
2022-08-09T14:08:19.339Z,157091.75
2022-08-09T14:10:52.689Z,157147.88
2022-08-09T14:14:16.221Z,157237.81
2022-08-09T14:16:12.419Z,157312.22
2022-08-09T14:18:45.187Z,157351.34
2022-08-09T14:21:17.796Z,157308.28
2022-08-09T14:23:54.018Z,157364.38
2022-08-09T14:26:30.178Z,157414.03
2022-08-09T14:29:00.332Z,157395.72
2022-08-09T14:31:35.919Z,157279.59
2022-08-09T14:34:17.612Z,157320.03
2022-08-09T14:36:56.618Z,157267.88
2022-08-09T14:39:40.407Z,157232.63
2022-08-09T14:42:11.416Z,157233.94
2022-08-09T14:44:48.942Z,157258.75
2022-08-09T14:47:44.950Z,157318.78
2022-08-09T14:50:16.226Z,157288.75
2022-08-09T14:52:47.787Z,157279.59
2022-08-09T14:55:20.290Z,157273.09
2022-08-09T14:57:48.952Z,157239.13
2022-08-09T15:00:17.147Z,157207.84
2022-08-09T15:02:47.188Z,157205.25
2022-08-09T15:05:16.038Z,157211.75
2022-08-09T15:07:56.306Z,157232.63
2022-08-09T15:10:26.246Z,157248.28
2022-08-09T15:12:53.873Z,157296.56
2022-08-09T15:15:21.694Z,157283.53
2022-08-09T15:17:52.390Z,157273.09
2022-08-09T15:21:56.591Z,157280.91
2022-08-09T15:24:01.003Z,157297.88
2022-08-09T15:25:58.544Z,157275.72
2022-08-09T15:28:28.434Z,157260.06
2022-08-09T15:31:09.843Z,157168.75
2022-08-09T15:34:18.116Z,157193.50
2022-08-09T15:36:29.341Z,157160.91
2022-08-09T15:38:59.894Z,157189.59
2022-08-09T15:41:31.919Z,157205.25
2022-08-09T15:43:59.973Z,157158.28
2022-08-09T15:46:34.432Z,157181.78
2022-08-09T15:49:20.867Z,157171.31
2022-08-09T15:52:02.857Z,157129.59
2022-08-09T15:54:46.273Z,157130.91
2022-08-09T15:57:19.043Z,157114.00
2022-08-09T16:00:01.322Z,157100.91
2022-08-09T16:02:28.694Z,157108.75
2022-08-09T16:04:56.460Z,157100.91
2022-08-09T16:07:25.711Z,157151.78
2022-08-09T16:10:04.280Z,157181.78
2022-08-09T16:12:32.954Z,157163.53
2022-08-09T16:15:01.180Z,157140.06
2022-08-09T16:17:29.139Z,157129.59
2022-08-09T16:20:05.002Z,157168.75
2022-08-09T16:22:37.140Z,157138.75
2022-08-09T16:25:13.896Z,157111.38
2022-08-09T16:27:43.214Z,157120.50
2022-08-09T16:30:15.517Z,157116.56
2022-08-09T16:33:12.208Z,157044.84
2022-08-09T16:35:57.142Z,157040.94
2022-08-09T16:38:29.586Z,157017.47
2022-08-09T16:40:58.528Z,156986.19
2022-08-09T16:43:31.552Z,157007.00
2022-08-09T16:45:59.130Z,156957.50
2022-08-09T16:48:40.063Z,156932.72
2022-08-09T16:51:17.409Z,156935.31
2022-08-09T16:56:36.378Z,156874.06
2022-08-09T16:59:06.819Z,156841.50
2022-08-09T17:01:38.806Z,156832.38
2022-08-09T17:04:06.838Z,156832.38
2022-08-09T17:07:07.360Z,156815.41
2022-08-09T17:09:45.763Z,156785.50
2022-08-09T17:12:10.875Z,156678.59
2022-08-09T17:14:38.269Z,156613.50
2022-08-09T17:17:25.973Z,156584.81
2022-08-09T17:20:30.431Z,156570.47
2022-08-09T17:22:51.672Z,156636.97
2022-08-09T17:25:22.286Z,156575.69
2022-08-09T17:27:54.542Z,156518.41
2022-08-09T17:30:25.871Z,156496.28
2022-08-09T17:32:54.232Z,156452.03
2022-08-09T17:35:21.643Z,156441.63
2022-08-09T17:38:11.770Z,156412.94
2022-08-09T17:40:39.339Z,156423.34
2022-08-09T17:43:32.560Z,156402.53
2022-08-09T17:46:03.039Z,156405.16
2022-08-09T17:48:34.408Z,156428.56
2022-08-09T17:51:09.705Z,156436.34
2022-08-09T17:53:52.077Z,156431.19
2022-08-09T17:56:21.297Z,156410.31
2022-08-09T17:58:50.030Z,156401.22
2022-08-09T18:01:22.590Z,156409.00
2022-08-09T18:03:51.043Z,156376.50
2022-08-09T18:06:31.021Z,156379.13
2022-08-09T18:09:01.979Z,156345.28
2022-08-09T18:11:32.166Z,156359.59
2022-08-09T18:14:21.395Z,156345.28
2022-08-09T18:16:49.710Z,156324.47
2022-08-09T18:20:56.591Z,156340.03
2022-08-09T18:22:06.072Z,156371.28
2022-08-09T18:24:41.051Z,156373.91
2022-08-09T18:27:10.100Z,156463.72
2022-08-09T18:30:38.746Z,156478.06
2022-08-09T18:32:30.248Z,156522.31
2022-08-09T18:34:57.724Z,156524.94
2022-08-09T18:37:49.098Z,156504.09
2022-08-09T18:40:12.702Z,156517.09
2022-08-09T18:42:40.113Z,156405.16
2022-08-09T18:45:21.618Z,156415.56
2022-08-09T18:48:00.425Z,156358.28
2022-08-09T18:50:33.682Z,156271.06
2022-08-09T18:53:01.452Z,156220.31
2022-08-09T18:55:56.586Z,156142.28
2022-08-09T18:58:31.821Z,156081.06
2022-08-09T19:01:01.141Z,156009.59
2022-08-09T19:03:28.913Z,155934.16
2022-08-09T19:06:03.408Z,155882.13
2022-08-09T19:08:32.322Z,155841.84
2022-08-09T19:10:59.770Z,155835.38
2022-08-09T19:13:37.984Z,155766.50
2022-08-09T19:16:20.849Z,155719.69
2022-08-09T19:18:48.689Z,155718.41
2022-08-09T19:21:18.891Z,155711.94
2022-08-09T19:24:33.078Z,155671.63
2022-08-09T19:26:37.578Z,155640.41
2022-08-09T19:29:15.138Z,155627.44
2022-08-09T19:31:49.693Z,155570.28
2022-08-09T19:34:22.624Z,155554.69
2022-08-09T19:36:52.879Z,155528.72
2022-08-09T19:39:43.060Z,155523.50
2022-08-09T19:42:09.170Z,155487.13
2022-08-09T19:44:43.144Z,155489.72
2022-08-09T19:47:11.880Z,155484.50
2022-08-09T19:50:10.077Z,155496.19
2022-08-09T19:52:28.607Z,155511.81
2022-08-09T19:54:56.085Z,155519.66
2022-08-09T19:57:26.428Z,155531.31
2022-08-09T19:59:59.319Z,155513.13
2022-08-09T20:04:10.933Z,155522.25
2022-08-09T20:05:23.635Z,155543.00
2022-08-09T20:07:59.813Z,155524.81
2022-08-09T20:10:34.294Z,155540.41
2022-08-09T20:13:04.719Z,155517.03
2022-08-09T20:16:37.682Z,155453.38
2022-08-09T20:18:22.777Z,155455.94
2022-08-09T20:20:56.363Z,155428.69
2022-08-09T20:23:25.535Z,155391.03
2022-08-09T20:26:07.247Z,155404.03
2022-08-09T20:28:47.577Z,155365.09
2022-08-09T20:31:16.550Z,155319.69
2022-08-09T20:33:45.820Z,155330.06
2022-08-09T20:36:14.189Z,155307.97
2022-08-09T20:39:28.581Z,155288.47
2022-08-09T20:41:35.474Z,155222.31
2022-08-09T20:44:10.075Z,155175.56
2022-08-09T20:46:43.374Z,155108.13
2022-08-09T20:49:15.730Z,155115.94
2022-08-09T20:51:44.019Z,155147.03
2022-08-09T20:54:16.418Z,155176.88
2022-08-09T20:56:46.780Z,155167.81
2022-08-09T20:59:17.261Z,155172.97
2022-08-09T21:01:50.870Z,155156.16
2022-08-09T21:05:53.626Z,155102.91
2022-08-09T21:07:11.414Z,155100.38
2022-08-09T21:09:45.176Z,155096.44
2022-08-09T21:14:48.393Z,155110.72
2022-08-09T21:18:23.296Z,155113.31
2022-08-09T21:20:22.165Z,155095.16
2022-08-09T21:22:54.851Z,155104.22
2022-08-09T21:25:44.334Z,155121.09
2022-08-09T21:28:35.094Z,155105.50
2022-08-09T21:31:13.565Z,155108.13
2022-08-09T21:33:45.942Z,155075.63
2022-08-09T21:36:25.912Z,155092.56
2022-08-09T21:38:57.459Z,155056.19
2022-08-09T21:42:03.690Z,155030.25
2022-08-09T21:44:15.387Z,154996.53
2022-08-09T21:47:01.923Z,154980.97
2022-08-09T21:49:29.385Z,154970.59
2022-08-09T21:52:15.100Z,154990.06
2022-08-09T21:54:46.381Z,154970.59
2022-08-09T21:57:37.314Z,154934.31
2022-08-09T22:00:09.517Z,154949.88
2022-08-09T22:02:38.020Z,154933.00
2022-08-09T22:05:17.150Z,154908.38
2022-08-09T22:07:53.103Z,154886.31
2022-08-09T22:10:23.171Z,154846.09
2022-08-09T22:12:52.353Z,154838.31
2022-08-09T22:15:33.259Z,154840.94
2022-08-09T22:18:02.453Z,154817.63
2022-08-09T22:20:31.347Z,154892.81
2022-08-09T22:23:00.419Z,154833.13
2022-08-09T22:26:05.558Z,154826.66
2022-08-09T22:28:21.033Z,154979.72
2022-08-09T22:30:59.710Z,155019.91
2022-08-09T22:33:37.641Z,154942.06
2022-08-09T22:36:14.445Z,154898.03
2022-08-09T22:38:48.658Z,154791.66
2022-08-09T22:41:16.291Z,154734.66
2022-08-09T22:44:01.472Z,154747.63
2022-08-09T22:48:17.817Z,154752.78
2022-08-09T22:49:17.810Z,154751.47
2022-08-09T22:51:56.509Z,154734.66
2022-08-09T22:54:27.500Z,154654.34
2022-08-09T22:56:57.056Z,154605.03
2022-08-09T22:59:56.857Z,154633.53
2022-08-09T23:02:15.632Z,154667.28
2022-08-09T23:04:53.854Z,154671.16
2022-08-09T23:08:23.173Z,154666.00
2022-08-09T23:10:29.193Z,154612.84
2022-08-09T23:12:56.727Z,154581.72
2022-08-09T23:15:24.176Z,154628.38
2022-08-09T23:17:51.588Z,154629.63
2022-08-09T23:20:19.130Z,154685.41
2022-08-09T23:22:46.550Z,154642.63
2022-08-09T23:25:14.215Z,154615.38
2022-08-09T23:27:59.677Z,154599.88
2022-08-09T23:30:31.094Z,154601.19
2022-08-09T23:32:58.460Z,154611.53
2022-08-09T23:35:25.928Z,154571.38
2022-08-09T23:37:53.336Z,154540.28
2022-08-09T23:40:20.894Z,154452.25
2022-08-09T23:42:49.674Z,154449.66
2022-08-09T23:45:37.060Z,154460.00
2022-08-09T23:48:08.943Z,154457.41
2022-08-09T23:50:36.719Z,154453.50
2022-08-09T23:53:04.478Z,154453.50
2022-08-09T23:55:33.028Z,154449.66
2022-08-09T23:58:10.382Z,154452.25
